createdAt,value
2019-01-22T00:02:15.412Z,88.30
2019-01-22T00:04:43.666Z,88.20
2019-01-22T00:07:11.928Z,88.60
2019-01-22T00:09:40.558Z,89.30
2019-01-22T00:12:08.892Z,88.30
2019-01-22T00:14:37.170Z,88.10
2019-01-22T00:17:05.414Z,90.10
2019-01-22T00:19:33.728Z,90.00
2019-01-22T00:22:01.982Z,88.50
2019-01-22T00:24:30.602Z,87.90
2019-01-22T00:26:58.877Z,88.90
2019-01-22T00:29:27.202Z,89.40
2019-01-22T00:31:55.463Z,89.30
2019-01-22T00:34:23.717Z,89.50
2019-01-22T00:36:51.995Z,88.80
2019-01-22T00:39:20.635Z,89.10
2019-01-22T00:41:48.970Z,89.20
2019-01-22T00:44:17.230Z,88.20
2019-01-22T00:46:45.516Z,89.00
2019-01-22T00:49:13.772Z,89.50
2019-01-22T00:51:42.017Z,89.90
2019-01-22T00:54:10.375Z,89.80
2019-01-22T00:56:38.696Z,89.70
2019-01-22T00:59:06.963Z,89.70
2019-01-22T01:01:35.202Z,89.40
2019-01-22T01:04:03.472Z,89.00
2019-01-22T01:06:31.718Z,89.00
2019-01-22T01:08:59.969Z,88.80
2019-01-22T01:11:28.217Z,88.20
2019-01-22T01:13:56.533Z,87.60
2019-01-22T01:16:24.830Z,87.90
2019-01-22T01:18:53.124Z,88.00
2019-01-22T01:21:21.393Z,89.40
2019-01-22T01:23:49.643Z,89.80
2019-01-22T01:26:17.915Z,89.60
2019-01-22T01:28:46.168Z,89.80
2019-01-22T01:31:14.422Z,89.90
2019-01-22T01:33:42.670Z,90.00
2019-01-22T01:36:10.919Z,89.90
2019-01-22T01:38:39.170Z,89.20
2019-01-22T01:41:07.427Z,88.50
2019-01-22T01:43:35.702Z,89.30
2019-01-22T01:46:03.976Z,89.70
2019-01-22T01:48:32.227Z,89.40
2019-01-22T01:51:00.478Z,89.40
2019-01-22T01:53:28.816Z,89.80
2019-01-22T01:55:57.173Z,90.00
2019-01-22T01:58:25.424Z,90.10
2019-01-22T02:00:53.689Z,90.30
2019-01-22T02:03:21.949Z,90.30
2019-01-22T02:05:50.186Z,90.50
2019-01-22T02:08:18.429Z,90.50
2019-01-22T02:10:46.703Z,90.40
2019-01-22T02:13:14.970Z,90.40
2019-01-22T02:15:49.137Z,90.50
2019-01-22T02:18:45.079Z,90.20
2019-01-22T02:21:19.141Z,90.20
2019-01-22T02:23:56.286Z,90.30
2019-01-22T02:26:33.849Z,90.80
2019-01-22T02:29:08.017Z,90.60
2019-01-22T02:31:42.058Z,90.50
2019-01-22T02:34:16.159Z,90.50
2019-01-22T02:36:56.462Z,90.60
2019-01-22T02:39:39.789Z,90.60
2019-01-22T02:42:17.202Z,90.60
2019-01-22T02:45:00.965Z,90.60
2019-01-22T02:47:32.543Z,90.50
2019-01-22T02:50:20.374Z,90.30
2019-01-22T02:52:57.622Z,90.40
2019-01-22T02:55:29.158Z,90.50
2019-01-22T02:58:15.725Z,90.70
2019-01-22T03:01:06.625Z,90.60
2019-01-22T03:03:38.224Z,90.60
2019-01-22T03:06:26.185Z,90.70
2019-01-22T03:09:20.359Z,91.00
2019-01-22T03:11:51.879Z,90.50
2019-01-22T03:14:29.163Z,90.50
2019-01-22T03:17:18.797Z,90.50
2019-01-22T03:19:53.255Z,90.40
2019-01-22T03:22:24.747Z,90.50
2019-01-22T03:25:08.197Z,90.60
2019-01-22T03:27:54.774Z,90.70
2019-01-22T03:30:46.076Z,90.60
2019-01-22T03:33:46.628Z,90.70
2019-01-22T03:36:39.534Z,90.60
2019-01-22T03:39:14.082Z,90.70
2019-01-22T03:41:48.392Z,90.70
2019-01-22T03:44:29.208Z,90.70
2019-01-22T03:47:23.761Z,90.60
2019-01-22T03:49:58.022Z,90.60
2019-01-22T03:52:44.574Z,90.50
2019-01-22T03:55:39.630Z,90.60
2019-01-22T03:58:07.954Z,90.70
2019-01-22T04:00:38.028Z,90.80
2019-01-22T04:03:06.278Z,90.80
2019-01-22T04:05:34.525Z,90.70
2019-01-22T04:08:02.814Z,90.70
2019-01-22T04:10:31.121Z,90.70
2019-01-22T04:12:59.375Z,90.50
2019-01-22T04:15:33.867Z,90.50
2019-01-22T04:18:02.114Z,90.10
2019-01-22T04:20:30.371Z,90.20
2019-01-22T04:22:58.781Z,90.30
2019-01-22T04:25:32.968Z,90.20
2019-01-22T04:28:10.513Z,90.20
2019-01-22T04:30:42.048Z,90.50
2019-01-22T04:33:46.799Z,90.70
2019-01-22T04:36:20.859Z,90.70
2019-01-22T04:39:01.192Z,90.80
2019-01-22T04:41:49.549Z,90.60
2019-01-22T04:44:26.843Z,90.40
2019-01-22T04:47:04.389Z,90.30
2019-01-22T04:49:52.317Z,90.00
2019-01-22T04:52:26.397Z,90.00
2019-01-22T04:55:09.756Z,90.00
2019-01-22T04:57:46.850Z,90.00
2019-01-22T05:00:39.564Z,90.10
2019-01-22T05:03:11.106Z,90.00
2019-01-22T05:05:51.432Z,90.00
2019-01-22T05:08:53.302Z,90.20
2019-01-22T05:11:24.800Z,89.60
2019-01-22T05:13:59.243Z,89.80
2019-01-22T05:16:42.550Z,89.30
2019-01-22T05:19:16.717Z,89.10
2019-01-22T05:22:11.155Z,89.30
2019-01-22T05:25:00.769Z,89.20
2019-01-22T05:28:08.353Z,88.70
2019-01-22T05:30:39.900Z,88.40
2019-01-22T05:33:11.408Z,88.40
2019-01-22T05:36:03.822Z,88.40
2019-01-22T05:38:52.017Z,88.50
2019-01-22T05:41:32.179Z,88.90
2019-01-22T05:44:12.457Z,88.90
2019-01-22T05:46:53.083Z,89.40
2019-01-22T05:49:44.404Z,89.50
2019-01-22T05:52:18.569Z,88.90
2019-01-22T05:54:56.221Z,89.10
2019-01-22T05:57:26.823Z,89.00
2019-01-22T06:00:03.813Z,89.10
2019-01-22T06:02:35.361Z,89.10
2019-01-22T06:05:09.536Z,89.30
2019-01-22T06:07:57.805Z,89.00
2019-01-22T06:10:51.910Z,89.10
2019-01-22T06:13:23.436Z,89.00
2019-01-22T06:16:17.448Z,88.70
2019-01-22T06:18:54.905Z,88.90
2019-01-22T06:21:50.046Z,88.90
2019-01-22T06:24:33.299Z,88.90
2019-01-22T06:27:03.838Z,89.00
2019-01-22T06:29:59.284Z,88.20
2019-01-22T06:32:45.160Z,88.20
2019-01-22T06:35:22.658Z,88.70
2019-01-22T06:38:10.650Z,88.40
2019-01-22T06:40:59.138Z,88.50
2019-01-22T06:43:39.569Z,87.80
2019-01-22T06:46:16.592Z,87.60
2019-01-22T06:48:50.883Z,87.70
2019-01-22T06:51:22.384Z,88.30
2019-01-22T06:53:59.533Z,87.90
2019-01-22T06:56:40.008Z,88.60
2019-01-22T06:59:23.435Z,87.80
2019-01-22T07:01:57.487Z,87.80
2019-01-22T07:04:34.662Z,87.80
2019-01-22T07:07:22.933Z,88.20
2019-01-22T07:10:03.113Z,88.50
2019-01-22T07:12:34.613Z,88.60
2019-01-22T07:15:17.938Z,88.70
2019-01-22T07:18:09.132Z,88.50
2019-01-22T07:20:55.006Z,88.90
2019-01-22T07:23:35.217Z,88.80
2019-01-22T07:26:29.188Z,88.30
2019-01-22T07:29:06.207Z,88.60
2019-01-22T07:31:46.706Z,88.30
2019-01-22T07:34:34.696Z,88.20
2019-01-22T07:37:21.306Z,88.10
2019-01-22T07:39:55.632Z,88.20
2019-01-22T07:42:30.025Z,88.10
2019-01-22T07:45:19.749Z,88.10
2019-01-22T07:47:54.166Z,88.30
2019-01-22T07:50:25.713Z,88.30
2019-01-22T07:53:00.024Z,87.90
2019-01-22T07:55:37.029Z,87.40
2019-01-22T07:58:26.634Z,87.80
2019-01-22T08:01:19.282Z,88.90
2019-01-22T08:04:13.469Z,87.90
2019-01-22T08:06:52.345Z,87.80
2019-01-22T08:09:38.937Z,87.70
2019-01-22T08:12:32.869Z,87.70
2019-01-22T08:15:23.998Z,87.50
2019-01-22T08:18:10.654Z,87.10
2019-01-22T08:21:01.881Z,87.00
2019-01-22T08:23:36.158Z,86.90
2019-01-22T08:26:22.610Z,86.60
2019-01-22T08:29:03.731Z,86.70
2019-01-22T08:31:59.151Z,86.50
2019-01-22T08:34:33.455Z,86.50
2019-01-22T08:37:10.936Z,86.10
2019-01-22T08:39:54.241Z,85.90
2019-01-22T08:42:31.574Z,85.80
2019-01-22T08:45:21.165Z,85.80
2019-01-22T08:48:11.815Z,85.10
2019-01-22T08:50:43.349Z,84.90
2019-01-22T08:53:46.930Z,85.20
2019-01-22T08:56:30.582Z,85.20
2019-01-22T08:59:04.648Z,84.90
2019-01-22T09:01:42.195Z,84.50
2019-01-22T09:04:33.111Z,84.30
2019-01-22T09:07:13.474Z,85.50
2019-01-22T09:09:50.629Z,84.60
2019-01-22T09:12:27.665Z,83.70
2019-01-22T09:15:26.610Z,83.20
2019-01-22T09:18:19.324Z,83.00
2019-01-22T09:20:56.429Z,82.40
2019-01-22T09:23:42.700Z,82.00
2019-01-22T09:26:32.046Z,81.10
2019-01-22T09:29:24.687Z,80.70
2019-01-22T09:32:11.301Z,80.40
2019-01-22T09:34:48.910Z,80.10
2019-01-22T09:37:20.429Z,79.70
2019-01-22T09:39:49.314Z,79.50
2019-01-22T09:42:17.613Z,79.70
2019-01-22T09:44:45.869Z,78.70
2019-01-22T09:47:14.145Z,78.60
2019-01-22T09:49:42.381Z,78.80
2019-01-22T09:52:10.650Z,78.10
2019-01-22T09:54:38.992Z,77.90
2019-01-22T09:58:34.848Z,68.50
2019-01-22T10:01:03.110Z,65.20
2019-01-22T10:03:31.370Z,67.30
2019-01-22T10:05:59.621Z,68.70
2019-01-22T10:08:27.875Z,69.30
2019-01-22T10:10:56.109Z,70.30
2019-01-22T10:13:24.369Z,71.10
2019-01-22T10:15:52.622Z,71.50
2019-01-22T10:18:20.879Z,72.30
2019-01-22T10:20:49.130Z,72.30
2019-01-22T10:23:17.375Z,72.00
2019-01-22T10:25:45.640Z,71.80
2019-01-22T10:28:13.880Z,71.50
2019-01-22T10:30:42.142Z,72.00
2019-01-22T10:33:10.456Z,72.40
2019-01-22T10:35:38.697Z,70.20
2019-01-22T10:38:06.958Z,69.70
2019-01-22T10:40:35.213Z,69.40
2019-01-22T10:43:09.180Z,69.50
2019-01-22T10:45:33.451Z,69.10
2019-01-22T10:48:01.694Z,68.60
2019-01-22T10:50:29.932Z,69.50
2019-01-22T10:52:58.211Z,69.10
2019-01-22T10:55:26.448Z,68.60
2019-01-22T10:57:54.709Z,68.50
2019-01-22T11:00:25.851Z,69.10
2019-01-22T11:02:54.123Z,68.80
2019-01-22T11:05:28.408Z,67.20
2019-01-22T11:07:56.671Z,67.70
2019-01-22T11:10:24.924Z,68.30
2019-01-22T11:12:53.183Z,68.30
2019-01-22T11:15:27.661Z,67.20
2019-01-22T11:17:51.397Z,66.80
2019-01-22T11:20:24.858Z,67.30
2019-01-22T11:22:53.102Z,66.10
2019-01-22T11:25:43.805Z,64.80
2019-01-22T11:28:10.841Z,64.70
2019-01-22T11:30:39.098Z,65.10
2019-01-22T11:33:07.358Z,65.00
2019-01-22T11:35:35.632Z,64.70
2019-01-22T11:38:05.342Z,62.80
2019-01-22T11:40:36.152Z,61.30
2019-01-22T11:43:04.478Z,61.20
2019-01-22T11:45:32.773Z,59.80
2019-01-22T11:48:01.009Z,57.80
2019-01-22T11:50:29.302Z,56.40
2019-01-22T11:52:57.547Z,56.10
2019-01-22T11:55:25.812Z,56.90
2019-01-22T11:57:54.083Z,56.70
2019-01-22T12:00:29.578Z,56.80
2019-01-22T12:02:57.849Z,56.30
2019-01-22T12:05:26.085Z,56.70
2019-01-22T12:07:54.333Z,56.70
2019-01-22T12:10:22.631Z,56.60
2019-01-22T12:12:50.927Z,56.90
2019-01-22T12:15:19.916Z,56.60
2019-01-22T12:17:48.261Z,56.70
2019-01-22T12:20:19.776Z,56.70
2019-01-22T12:22:48.253Z,56.60
2019-01-22T12:25:16.505Z,56.20
2019-01-22T12:27:44.764Z,56.20
2019-01-22T12:30:19.365Z,54.70
2019-01-22T12:32:47.652Z,54.80
2019-01-22T12:35:16.365Z,55.40
2019-01-22T12:37:44.601Z,54.90
2019-01-22T12:40:23.605Z,54.70
2019-01-22T12:42:51.908Z,54.40
2019-01-22T12:45:25.130Z,54.10
2019-01-22T12:47:53.385Z,53.80
2019-01-22T12:50:25.905Z,54.50
2019-01-22T12:52:53.876Z,53.90
2019-01-22T12:55:22.183Z,54.30
2019-01-22T12:57:50.449Z,54.70
2019-01-22T13:00:30.254Z,53.90
2019-01-22T13:02:58.592Z,53.60
2019-01-22T13:05:42.176Z,54.40
2019-01-22T13:08:10.411Z,55.50
2019-01-22T13:10:38.739Z,55.50
2019-01-22T13:13:06.991Z,56.40
2019-01-22T13:15:35.251Z,56.70
2019-01-22T13:18:03.504Z,56.60
2019-01-22T13:20:31.789Z,56.50
2019-01-22T13:23:00.053Z,57.00
2019-01-22T13:25:28.317Z,57.30
2019-01-22T13:27:56.566Z,57.60
2019-01-22T13:30:26.786Z,57.70
2019-01-22T13:32:55.049Z,57.30
2019-01-22T13:35:23.285Z,58.10
2019-01-22T13:37:51.574Z,58.40
2019-01-22T13:40:19.872Z,58.20
2019-01-22T13:42:48.142Z,58.00
2019-01-22T13:45:34.571Z,58.20
2019-01-22T13:48:05.058Z,58.50
2019-01-22T13:50:33.329Z,59.10
2019-01-22T13:53:01.601Z,59.40
2019-01-22T13:55:38.079Z,59.20
2019-01-22T13:58:06.394Z,59.70
2019-01-22T14:00:34.901Z,58.80
2019-01-22T14:03:03.173Z,58.80
2019-01-22T14:05:31.436Z,59.20
2019-01-22T14:07:59.697Z,60.20
2019-01-22T14:10:27.958Z,60.70
2019-01-22T14:12:56.737Z,60.70
2019-01-22T14:15:34.234Z,59.70
2019-01-22T14:18:02.475Z,59.40
2019-01-22T14:20:30.727Z,60.40
2019-01-22T14:22:58.999Z,61.00
2019-01-22T14:25:27.275Z,62.00
2019-01-22T14:27:55.521Z,62.40
2019-01-22T14:30:35.364Z,63.50
2019-01-22T14:33:03.786Z,64.60
2019-01-22T14:35:32.041Z,65.40
2019-01-22T14:38:00.289Z,65.20
2019-01-22T14:40:29.044Z,65.20
2019-01-22T14:42:57.281Z,66.10
2019-01-22T14:45:25.526Z,66.80
2019-01-22T14:47:53.779Z,66.60
2019-01-22T14:50:24.210Z,66.90
2019-01-22T14:52:52.505Z,67.30
2019-01-22T14:55:20.762Z,67.70
2019-01-22T14:57:49.027Z,67.60
2019-01-22T15:00:25.198Z,68.70
2019-01-22T15:02:53.050Z,68.50
2019-01-22T15:05:21.368Z,68.50
2019-01-22T15:07:49.606Z,69.00
2019-01-22T15:10:18.406Z,69.10
2019-01-22T15:12:49.198Z,69.70
2019-01-22T15:15:18.483Z,70.20
2019-01-22T15:17:46.741Z,69.90
2019-01-22T15:20:22.782Z,70.80
2019-01-22T15:22:51.129Z,70.80
2019-01-22T15:25:19.397Z,71.80
2019-01-22T15:27:51.618Z,72.70
2019-01-22T15:30:25.631Z,71.70
2019-01-22T15:32:53.885Z,71.40
2019-01-22T15:35:22.124Z,72.10
2019-01-22T15:37:50.381Z,71.70
2019-01-22T15:40:25.664Z,72.20
2019-01-22T15:42:53.962Z,73.10
2019-01-22T15:45:22.419Z,73.80
2019-01-22T15:47:50.695Z,74.10
2019-01-22T15:50:20.480Z,74.00
2019-01-22T15:52:48.734Z,73.80
2019-01-22T15:55:28.185Z,74.50
2019-01-22T15:57:56.439Z,74.00
2019-01-22T16:00:26.230Z,73.60
2019-01-22T16:02:54.470Z,73.80
2019-01-22T16:05:22.754Z,74.60
2019-01-22T16:07:51.020Z,75.00
2019-01-22T16:10:19.260Z,75.40
2019-01-22T16:12:47.526Z,75.20
2019-01-22T16:15:17.718Z,75.10
2019-01-22T16:17:45.972Z,75.40
2019-01-22T16:20:17.115Z,75.80
2019-01-22T16:22:45.453Z,75.80
2019-01-22T16:25:13.965Z,76.00
2019-01-22T16:27:42.270Z,76.20
2019-01-22T16:30:13.550Z,75.30
2019-01-22T16:32:41.828Z,75.90
2019-01-22T16:35:12.446Z,75.40
2019-01-22T16:37:40.785Z,75.90
2019-01-22T16:40:11.639Z,76.30
2019-01-22T16:42:39.938Z,77.30
2019-01-22T16:45:14.522Z,77.00
2019-01-22T16:47:42.754Z,76.70
2019-01-22T16:50:13.157Z,76.90
2019-01-22T16:52:41.411Z,77.10
2019-01-22T16:55:13.219Z,77.00
2019-01-22T16:57:41.450Z,77.50
2019-01-22T17:00:15.839Z,77.50
2019-01-22T17:02:44.096Z,77.20
2019-01-22T17:05:12.325Z,76.90
2019-01-22T17:07:40.597Z,77.50
2019-01-22T17:10:12.261Z,77.70
2019-01-22T17:12:40.597Z,77.20
2019-01-22T17:15:10.273Z,77.00
2019-01-22T17:17:38.535Z,77.10
2019-01-22T17:20:17.256Z,76.60
2019-01-22T17:22:43.133Z,76.40
2019-01-22T17:25:11.394Z,77.00
2019-01-22T17:27:39.658Z,77.60
2019-01-22T17:30:11.259Z,77.70
2019-01-22T17:32:41.140Z,77.70
2019-01-22T17:35:10.510Z,77.90
2019-01-22T17:37:38.754Z,77.90
2019-01-22T17:40:10.290Z,78.10
2019-01-22T17:42:38.550Z,78.20
2019-01-22T17:45:08.066Z,78.50
2019-01-22T17:47:36.409Z,79.20
2019-01-22T17:50:11.041Z,78.70
2019-01-22T17:52:37.893Z,77.70
2019-01-22T17:55:09.220Z,78.00
2019-01-22T17:57:37.463Z,77.70
2019-01-22T18:00:09.235Z,78.10
2019-01-22T18:02:37.505Z,77.60
2019-01-22T18:05:07.593Z,77.30
2019-01-22T18:07:35.841Z,77.40
2019-01-22T18:10:06.752Z,77.50
2019-01-22T18:12:35.035Z,78.30
2019-01-22T18:15:03.283Z,77.60
2019-01-22T18:17:31.564Z,77.90
2019-01-22T18:19:59.914Z,78.40
2019-01-22T18:22:28.179Z,76.90
2019-01-22T18:24:56.448Z,77.50
2019-01-22T18:27:24.719Z,77.60
2019-01-22T18:30:13.577Z,77.60
2019-01-22T18:32:41.821Z,77.60
2019-01-22T18:35:15.864Z,78.20
2019-01-22T18:37:44.110Z,77.80
2019-01-22T18:40:14.097Z,77.70
2019-01-22T18:42:42.376Z,77.80
2019-01-22T18:45:13.576Z,78.20
2019-01-22T18:47:41.829Z,78.40
2019-01-22T18:50:13.369Z,78.30
2019-01-22T18:52:41.633Z,78.30
2019-01-22T18:55:09.880Z,78.70
2019-01-22T18:57:38.132Z,78.30
2019-01-22T19:00:14.940Z,78.30
2019-01-22T19:02:43.217Z,78.30
2019-01-22T19:05:11.457Z,78.30
2019-01-22T19:07:39.888Z,77.70
2019-01-22T19:10:14.015Z,77.70
2019-01-22T19:12:42.257Z,77.70
2019-01-22T19:15:13.555Z,78.10
2019-01-22T19:17:43.460Z,78.20
2019-01-22T19:20:12.279Z,78.50
2019-01-22T19:22:40.547Z,79.20
2019-01-22T19:25:14.653Z,78.90
2019-01-22T19:27:43.186Z,78.70
2019-01-22T19:30:14.469Z,78.40
2019-01-22T19:32:42.711Z,78.60
2019-01-22T19:35:11.071Z,78.20
2019-01-22T19:37:39.360Z,78.10
2019-01-22T19:40:10.777Z,78.30
2019-01-22T19:42:39.042Z,78.70
2019-01-22T19:45:13.269Z,78.70
2019-01-22T19:47:41.549Z,79.00
2019-01-22T19:50:12.475Z,78.00
2019-01-22T19:52:40.847Z,78.10
2019-01-22T19:55:10.045Z,78.50
2019-01-22T19:57:41.205Z,78.70
2019-01-22T20:00:17.957Z,78.30
2019-01-22T20:02:46.299Z,78.40
2019-01-22T20:05:14.606Z,78.80
2019-01-22T20:07:42.939Z,78.70
2019-01-22T20:10:13.833Z,78.60
2019-01-22T20:12:42.108Z,78.70
2019-01-22T20:15:12.990Z,79.20
2019-01-22T20:17:41.336Z,79.20
2019-01-22T20:20:12.621Z,78.70
2019-01-22T20:22:40.881Z,79.00
2019-01-22T20:25:09.150Z,78.90
2019-01-22T20:27:37.397Z,78.90
2019-01-22T20:30:18.030Z,79.20
2019-01-22T20:32:46.323Z,79.20
2019-01-22T20:35:14.614Z,78.40
2019-01-22T20:37:43.004Z,77.60
2019-01-22T20:40:13.596Z,78.30
2019-01-22T20:42:41.838Z,77.90
2019-01-22T20:45:27.354Z,78.00
2019-01-22T20:47:55.616Z,77.90
2019-01-22T20:50:23.869Z,78.10
2019-01-22T20:52:52.142Z,77.40
2019-01-22T20:55:22.220Z,77.90
2019-01-22T20:57:54.806Z,77.80
2019-01-22T21:00:23.028Z,78.00
2019-01-22T21:02:51.374Z,78.30
2019-01-22T21:05:30.521Z,78.40
2019-01-22T21:07:58.807Z,78.40
2019-01-22T21:10:29.650Z,78.30
2019-01-22T21:12:57.901Z,77.90
2019-01-22T21:15:26.313Z,77.90
2019-01-22T21:17:54.560Z,78.40
2019-01-22T21:20:22.842Z,78.50
2019-01-22T21:22:51.400Z,77.90
2019-01-22T21:25:21.553Z,77.90
2019-01-22T21:27:49.793Z,77.60
2019-01-22T21:30:29.403Z,77.90
2019-01-22T21:32:57.639Z,77.70
2019-01-22T21:35:25.979Z,78.00
2019-01-22T21:37:54.268Z,78.40
2019-01-22T21:40:22.521Z,78.90
2019-01-22T21:42:50.972Z,78.70
2019-01-22T21:45:21.653Z,78.40
2019-01-22T21:47:49.883Z,78.50
2019-01-22T21:50:18.195Z,77.50
2019-01-22T21:52:46.556Z,78.00
2019-01-22T21:55:22.174Z,78.00
2019-01-22T21:57:50.504Z,77.30
2019-01-22T22:00:24.106Z,77.50
2019-01-22T22:02:52.346Z,78.00
2019-01-22T22:05:22.745Z,77.60
2019-01-22T22:07:51.014Z,77.40
2019-01-22T22:10:20.497Z,77.10
2019-01-22T22:12:48.757Z,76.20
2019-01-22T22:15:19.254Z,77.30
2019-01-22T22:17:47.537Z,77.20
2019-01-22T22:20:16.615Z,77.50
2019-01-22T22:22:44.963Z,77.10
2019-01-22T22:25:21.846Z,77.40
2019-01-22T22:27:50.114Z,76.10
2019-01-22T22:30:33.068Z,76.40
2019-01-22T22:33:01.331Z,76.50
2019-01-22T22:35:29.580Z,77.00
2019-01-22T22:37:59.227Z,76.70
2019-01-22T22:40:27.673Z,75.50
2019-01-22T22:42:55.926Z,75.70
2019-01-22T22:45:24.347Z,75.10
2019-01-22T22:47:53.258Z,75.50
2019-01-22T22:50:27.083Z,75.70
2019-01-22T22:52:55.367Z,76.30
2019-01-22T22:55:23.640Z,75.40
2019-01-22T22:57:51.968Z,75.20
2019-01-22T23:00:30.266Z,74.80
2019-01-22T23:02:58.634Z,75.20
2019-01-22T23:05:26.891Z,75.60
2019-01-22T23:07:55.159Z,75.70
2019-01-22T23:10:23.429Z,75.70
2019-01-22T23:12:51.697Z,75.60
2019-01-22T23:15:19.972Z,76.20
2019-01-22T23:17:48.220Z,76.40
2019-01-22T23:20:16.484Z,76.50
2019-01-22T23:22:44.760Z,76.30
2019-01-22T23:25:13.000Z,77.10
2019-01-22T23:27:41.278Z,76.10
2019-01-22T23:30:12.075Z,76.20
2019-01-22T23:32:40.405Z,76.90
2019-01-22T23:35:09.124Z,77.00
2019-01-22T23:37:37.414Z,77.10
2019-01-22T23:40:08.989Z,76.80
2019-01-22T23:42:37.246Z,77.20
2019-01-22T23:45:08.842Z,76.90
2019-01-22T23:47:37.151Z,76.70
2019-01-22T23:50:10.179Z,76.60
2019-01-22T23:52:38.505Z,77.00
2019-01-22T23:55:08.116Z,75.80
2019-01-22T23:57:36.420Z,76.30
